Coleraine, Minnesota
Current Conditions -  °F | °C
As of 11:15 PM on Friday 28 Nov 2014 (Local Time) from KGPZ Reporting Station
Overcast Overcast  
Wind Chill:   Ceiling: 2200
Heat Index: 16°   Visibility: 10mi
Dew Point: 10°   Wind: 10mph
Humidity: 79%   Direction: 130°SE
Pressure: 29.64"   Gusts: NA
Location:  47.29°N, 93.43°W
Report Text: KGPZ 290515Z AUTO 13009KT 10SM BKN022 OVC029 M09/M12 A2964 RMK AO1
Loading
Personal Weather Stations






























Interactive Weather Map New forecast layout! Learn more

10-Day Weather Forecast

Advertisements
Track Severe Weather on mobile